createdAt,value
2018-01-15T00:01:13.880Z,27.48
2018-01-15T00:03:41.342Z,25.95
2018-01-15T00:06:08.843Z,27.35
2018-01-15T00:08:36.434Z,26.20
2018-01-15T00:11:03.914Z,27.17
2018-01-15T00:13:31.372Z,26.45
2018-01-15T00:15:58.857Z,27.65
2018-01-15T00:18:26.463Z,25.77
2018-01-15T00:20:53.939Z,28.92
2018-01-15T00:23:21.406Z,27.45
2018-01-15T00:25:48.875Z,27.85
2018-01-15T00:28:16.495Z,25.85
2018-01-15T00:30:44.023Z,27.42
2018-01-15T00:33:11.557Z,26.73
2018-01-15T00:35:39.038Z,28.15
2018-01-15T00:38:06.543Z,26.58
2018-01-15T00:40:34.118Z,27.60
2018-01-15T00:43:01.648Z,29.23
2018-01-15T00:45:29.136Z,27.73
2018-01-15T00:47:56.621Z,27.20
2018-01-15T00:50:24.104Z,28.10
2018-01-15T00:52:51.584Z,26.87
2018-01-15T00:55:19.060Z,28.87
2018-01-15T00:57:46.537Z,30.23
2018-01-15T01:00:13.993Z,28.27
2018-01-15T01:02:41.508Z,26.85
2018-01-15T01:05:08.977Z,28.83
2018-01-15T01:07:36.449Z,27.62
2018-01-15T01:10:04.000Z,28.52
2018-01-15T01:12:31.467Z,28.67
2018-01-15T01:14:58.946Z,28.75
2018-01-15T01:17:26.442Z,29.95
2018-01-15T01:19:53.921Z,29.20
2018-01-15T01:22:21.388Z,31.20
2018-01-15T01:24:49.057Z,30.98
2018-01-15T01:27:16.683Z,27.55
2018-01-15T01:29:44.153Z,29.08
2018-01-15T01:32:11.644Z,29.83
2018-01-15T01:34:39.109Z,30.48
2018-01-15T01:37:06.618Z,28.55
2018-01-15T01:39:34.111Z,30.15
2018-01-15T01:42:01.585Z,30.05
2018-01-15T01:44:29.063Z,28.48
2018-01-15T01:46:56.547Z,30.55
2018-01-15T01:49:24.011Z,29.87
2018-01-15T01:51:51.514Z,31.45
2018-01-15T01:54:18.969Z,28.17
2018-01-15T01:56:46.436Z,28.38
2018-01-15T01:59:13.929Z,29.60
2018-01-15T02:01:41.395Z,29.80
2018-01-15T02:04:08.925Z,29.12
2018-01-15T02:06:36.402Z,29.10
2018-01-15T02:09:03.898Z,28.83
2018-01-15T02:11:31.388Z,29.65
2018-01-15T02:13:58.860Z,30.23
2018-01-15T02:16:26.306Z,28.62
2018-01-15T02:18:53.770Z,30.25
2018-01-15T02:21:21.273Z,28.58
2018-01-15T02:23:48.770Z,29.48
2018-01-15T02:26:16.405Z,28.73
2018-01-15T02:28:43.868Z,31.00
2018-01-15T02:31:12.318Z,28.35
2018-01-15T02:33:39.784Z,28.70
2018-01-15T02:36:07.276Z,28.67
2018-01-15T02:38:35.140Z,29.95
2018-01-15T02:41:02.617Z,27.75
2018-01-15T02:43:30.132Z,28.77
2018-01-15T02:45:57.603Z,28.85
2018-01-15T02:48:25.087Z,28.27
2018-01-15T02:50:52.605Z,28.12
2018-01-15T02:53:20.077Z,30.37
2018-01-15T02:55:47.561Z,28.73
2018-01-15T02:58:15.097Z,30.27
2018-01-15T03:00:42.601Z,28.48
2018-01-15T03:03:10.096Z,28.85
2018-01-15T03:05:37.557Z,28.45
2018-01-15T03:08:05.030Z,28.92
2018-01-15T03:10:32.505Z,28.85
2018-01-15T03:12:59.958Z,27.05
2018-01-15T03:15:27.434Z,29.35
2018-01-15T03:17:54.905Z,27.10
2018-01-15T03:20:22.403Z,28.95
2018-01-15T03:22:50.392Z,28.87
2018-01-15T03:25:17.864Z,29.65
2018-01-15T03:27:45.331Z,27.40
2018-01-15T03:30:12.801Z,29.12
2018-01-15T03:32:40.296Z,27.90
2018-01-15T03:35:07.771Z,28.67
2018-01-15T03:37:35.390Z,28.35
2018-01-15T03:40:02.894Z,27.80
2018-01-15T03:42:30.392Z,27.83
2018-01-15T03:44:57.846Z,26.90
2018-01-15T03:47:25.303Z,26.80
2018-01-15T03:49:52.760Z,28.10
2018-01-15T03:52:20.250Z,27.60
2018-01-15T03:54:47.811Z,28.00
2018-01-15T03:57:15.349Z,27.67
2018-01-15T03:59:42.826Z,28.20
2018-01-15T04:02:10.335Z,29.83
2018-01-15T04:04:37.918Z,27.80
2018-01-15T04:07:05.390Z,29.10
2018-01-15T04:09:32.859Z,29.92
2018-01-15T04:12:00.345Z,29.33
2018-01-15T04:14:27.819Z,30.15
2018-01-15T04:16:55.285Z,29.55
2018-01-15T04:19:22.750Z,26.42
2018-01-15T04:21:50.208Z,28.15
2018-01-15T04:24:17.690Z,27.52
2018-01-15T04:26:45.167Z,28.90
2018-01-15T04:29:12.628Z,28.30
2018-01-15T04:31:40.091Z,28.62
2018-01-15T04:34:07.542Z,27.62
2018-01-15T04:36:35.048Z,26.92
2018-01-15T04:39:02.526Z,28.83
2018-01-15T04:41:30.005Z,29.08
2018-01-15T04:43:57.494Z,29.63
2018-01-15T04:46:24.988Z,28.95
2018-01-15T04:48:52.454Z,27.83
2018-01-15T04:51:20.094Z,28.38
2018-01-15T04:53:47.582Z,29.55
2018-01-15T04:56:15.051Z,28.48
2018-01-15T04:58:42.519Z,28.05
2018-01-15T05:01:10.062Z,29.75
2018-01-15T05:03:37.509Z,30.23
2018-01-15T05:06:04.975Z,29.20
2018-01-15T05:08:32.464Z,30.17
2018-01-15T05:10:59.960Z,29.17
2018-01-15T05:13:27.442Z,28.05
2018-01-15T05:15:54.963Z,30.20
2018-01-15T05:18:22.435Z,28.38
2018-01-15T05:20:49.918Z,29.52
2018-01-15T05:23:17.380Z,29.30
2018-01-15T05:25:44.907Z,28.05
2018-01-15T05:28:12.367Z,29.00
2018-01-15T05:30:39.876Z,30.40
2018-01-15T05:33:07.376Z,30.65
2018-01-15T05:35:34.836Z,31.33
2018-01-15T05:38:02.338Z,30.83
2018-01-15T05:40:29.849Z,31.73
2018-01-15T05:42:57.320Z,32.55
2018-01-15T05:45:24.889Z,33.35
2018-01-15T05:47:52.357Z,32.72
2018-01-15T05:50:20.036Z,33.67
2018-01-15T05:55:21.303Z,32.70
2018-01-15T05:57:48.827Z,29.45
2018-01-15T06:00:16.303Z,32.08
2018-01-15T06:02:43.772Z,31.30
2018-01-15T06:05:11.271Z,32.67
2018-01-15T06:07:38.739Z,32.63
2018-01-15T06:10:06.200Z,30.52
2018-01-15T06:12:33.671Z,33.65
2018-01-15T06:15:01.128Z,35.17
2018-01-15T06:17:28.620Z,35.60
2018-01-15T06:19:56.121Z,33.20
2018-01-15T06:22:23.577Z,34.08
2018-01-15T06:24:51.709Z,31.92
2018-01-15T06:27:19.263Z,32.85
2018-01-15T06:29:46.726Z,33.25
2018-01-15T06:32:14.232Z,31.92
2018-01-15T06:34:43.106Z,32.97
2018-01-15T06:37:10.985Z,34.58
2018-01-15T06:39:38.547Z,38.63
2018-01-15T06:42:06.088Z,35.65
2018-01-15T06:44:33.613Z,41.70
2018-01-15T06:47:01.171Z,33.80
2018-01-15T06:49:28.685Z,31.90
2018-01-15T06:51:56.151Z,31.12
2018-01-15T06:54:23.657Z,33.25
2018-01-15T06:56:51.146Z,32.40
2018-01-15T06:59:18.701Z,32.00
2018-01-15T07:01:46.177Z,32.67
2018-01-15T07:04:13.670Z,31.15
2018-01-15T07:06:41.150Z,31.73
2018-01-15T07:09:08.631Z,29.95
2018-01-15T07:11:36.112Z,29.63
2018-01-15T07:14:03.574Z,31.20
2018-01-15T07:16:31.079Z,30.30
2018-01-15T07:18:58.539Z,30.42
2018-01-15T07:21:26.000Z,29.35
2018-01-15T07:23:53.499Z,31.17
2018-01-15T07:26:20.963Z,29.27
2018-01-15T07:28:48.462Z,29.27
2018-01-15T07:31:15.936Z,27.52
2018-01-15T07:33:43.468Z,29.10
2018-01-15T07:36:10.915Z,27.50
2018-01-15T07:38:38.504Z,27.75
2018-01-15T07:41:06.010Z,25.60
2018-01-15T07:43:33.473Z,25.83
2018-01-15T07:46:00.967Z,26.45
2018-01-15T07:48:28.762Z,26.90
2018-01-15T07:50:56.294Z,25.80
2018-01-15T07:53:23.783Z,24.98
2018-01-15T07:55:51.250Z,23.95
2018-01-15T07:58:18.882Z,24.40
2018-01-15T08:00:46.487Z,26.50
2018-01-15T08:03:14.088Z,22.70
2018-01-15T08:05:41.572Z,24.15
2018-01-15T08:08:09.035Z,22.25
2018-01-15T08:10:37.325Z,24.17
2018-01-15T08:13:04.801Z,22.95
2018-01-15T08:15:32.288Z,24.15
2018-01-15T08:17:59.756Z,23.48
2018-01-15T08:20:27.233Z,23.75
2018-01-15T08:22:54.715Z,22.87
2018-01-15T08:25:22.171Z,24.08
2018-01-15T08:27:49.652Z,24.08
2018-01-15T08:30:17.122Z,22.17
2018-01-15T08:32:44.570Z,23.55
2018-01-15T08:35:12.072Z,23.10
2018-01-15T08:37:39.530Z,22.95
2018-01-15T08:40:07.018Z,23.38
2018-01-15T08:42:34.479Z,21.17
2018-01-15T08:45:01.959Z,22.08
2018-01-15T08:47:29.483Z,21.35
2018-01-15T08:49:56.974Z,21.83
2018-01-15T08:52:24.430Z,21.52
2018-01-15T08:54:51.890Z,21.00
2018-01-15T08:57:19.493Z,21.60
2018-01-15T08:59:46.951Z,19.65
2018-01-15T09:02:14.446Z,21.95
2018-01-15T09:04:41.921Z,21.20
2018-01-15T09:07:09.399Z,20.70
2018-01-15T09:09:36.886Z,20.23
2018-01-15T09:12:04.396Z,19.42
2018-01-15T09:14:32.779Z,21.67
2018-01-15T09:17:00.298Z,19.37
2018-01-15T09:19:27.766Z,19.55
2018-01-15T09:21:55.343Z,20.02
2018-01-15T09:24:24.803Z,19.33
2018-01-15T09:26:52.314Z,18.30
2018-01-15T09:29:19.784Z,19.90
2018-01-15T09:31:47.253Z,18.60
2018-01-15T09:34:14.745Z,18.55
2018-01-15T09:36:42.225Z,20.60
2018-01-15T09:39:09.685Z,19.42
2018-01-15T09:41:37.171Z,20.45
2018-01-15T09:44:04.646Z,18.48
2018-01-15T09:46:32.195Z,19.52
2018-01-15T09:48:59.684Z,20.02
2018-01-15T09:51:27.159Z,18.27
2018-01-15T09:53:54.630Z,18.75
2018-01-15T09:56:22.118Z,17.95
2018-01-15T09:58:49.588Z,17.47
2018-01-15T10:01:17.109Z,18.25
2018-01-15T10:03:44.602Z,17.85
2018-01-15T10:06:12.098Z,17.33
2018-01-15T10:08:39.658Z,18.58
2018-01-15T10:11:07.124Z,18.12
2018-01-15T10:13:34.627Z,18.05
2018-01-15T10:16:02.109Z,16.80
2018-01-15T10:18:29.776Z,17.00
2018-01-15T10:20:57.262Z,17.00
2018-01-15T10:23:24.714Z,16.35
2018-01-15T10:25:52.203Z,15.68
2018-01-15T10:28:20.214Z,14.55
2018-01-15T10:30:47.706Z,16.08
2018-01-15T10:33:15.214Z,17.02
2018-01-15T10:35:42.714Z,16.55
2018-01-15T10:38:10.281Z,15.88
2018-01-15T10:40:37.743Z,16.15
2018-01-15T10:43:05.201Z,15.07
2018-01-15T10:45:32.682Z,14.70
2018-01-15T10:48:00.138Z,15.07
2018-01-15T10:50:27.624Z,15.60
2018-01-15T10:52:55.100Z,15.10
2018-01-15T10:55:22.589Z,13.97
2018-01-15T10:57:50.069Z,14.90
2018-01-15T11:00:17.859Z,14.27
2018-01-15T11:02:45.321Z,13.10
2018-01-15T11:05:12.801Z,13.90
2018-01-15T11:07:40.254Z,13.10
2018-01-15T11:10:07.739Z,12.80
2018-01-15T11:12:35.211Z,12.93
2018-01-15T11:15:02.671Z,13.00
2018-01-15T11:17:30.155Z,13.80
2018-01-15T11:19:57.611Z,12.83
2018-01-15T11:22:25.079Z,13.07
2018-01-15T11:24:52.622Z,13.03
2018-01-15T11:27:20.458Z,14.30
2018-01-15T11:29:47.917Z,12.93
2018-01-15T11:32:15.433Z,13.40
2018-01-15T11:34:42.883Z,13.60
2018-01-15T11:37:10.398Z,12.23
2018-01-15T11:39:37.849Z,13.00
2018-01-15T11:42:05.342Z,11.80
2018-01-15T11:44:32.838Z,13.00
2018-01-15T11:47:00.324Z,13.13
2018-01-15T11:49:27.818Z,12.13
2018-01-15T11:51:55.301Z,13.80
2018-01-15T11:54:22.776Z,11.53
2018-01-15T11:56:50.261Z,13.30
2018-01-15T11:59:17.762Z,11.47
2018-01-15T12:01:45.244Z,11.23
2018-01-15T12:04:12.764Z,11.20
2018-01-15T12:06:40.233Z,11.27
2018-01-15T12:09:07.695Z,11.07
2018-01-15T12:11:35.265Z,11.07
2018-01-15T12:14:02.793Z,12.80
2018-01-15T12:16:32.375Z,11.77
2018-01-15T12:18:59.929Z,13.50
2018-01-15T12:21:28.028Z,11.93
2018-01-15T12:23:55.550Z,12.47
2018-01-15T12:26:23.090Z,13.17
2018-01-15T12:28:50.554Z,12.10
2018-01-15T12:31:18.032Z,12.77
2018-01-15T12:33:45.518Z,13.47
2018-01-15T12:36:13.011Z,13.33
2018-01-15T12:38:41.792Z,13.10
2018-01-15T12:41:09.391Z,13.30
2018-01-15T12:43:36.919Z,12.10
2018-01-15T12:46:04.449Z,12.20
2018-01-15T12:48:33.150Z,13.70
2018-01-15T12:51:00.632Z,13.10
2018-01-15T12:53:28.199Z,12.73
2018-01-15T12:55:55.755Z,12.50
2018-01-15T12:58:23.322Z,13.20
2018-01-15T13:00:50.841Z,12.70
2018-01-15T13:03:18.513Z,11.63
2018-01-15T13:05:51.408Z,11.80
2018-01-15T13:11:25.035Z,10.80
2018-01-15T13:13:54.561Z,11.30
2018-01-15T13:16:23.781Z,10.50
2018-01-15T13:18:53.040Z,13.30
2018-01-15T13:21:21.017Z,12.30
2018-01-15T13:23:49.086Z,11.27
2018-01-15T13:26:16.712Z,10.80
2018-01-15T13:28:44.266Z,12.17
2018-01-15T13:31:11.752Z,11.43
2018-01-15T13:33:39.281Z,10.80
2018-01-15T13:36:06.761Z,9.40
2018-01-15T13:38:34.996Z,10.00
2018-01-15T13:41:02.683Z,11.60
2018-01-15T13:43:30.165Z,10.70
2018-01-15T13:45:57.681Z,9.98
2018-01-15T13:48:25.191Z,11.50
2018-01-15T13:50:52.747Z,10.20
2018-01-15T13:53:20.249Z,11.40
2018-01-15T13:55:47.743Z,12.90
2018-01-15T13:58:15.228Z,12.68
2018-01-15T14:00:42.743Z,11.45
2018-01-15T14:03:10.227Z,11.95
2018-01-15T14:05:37.760Z,12.20
2018-01-15T14:08:05.268Z,11.80
2018-01-15T14:10:32.853Z,12.45
2018-01-15T14:13:00.336Z,11.30
2018-01-15T14:15:27.793Z,12.05
2018-01-15T14:17:55.273Z,12.70
2018-01-15T14:20:22.940Z,12.37
2018-01-15T14:22:50.428Z,12.95
2018-01-15T14:25:17.938Z,12.10
2018-01-15T14:27:45.405Z,12.52
2018-01-15T14:30:12.914Z,12.85
2018-01-15T14:32:40.395Z,11.85
2018-01-15T14:35:07.882Z,11.10
2018-01-15T14:37:35.355Z,12.23
2018-01-15T14:40:02.843Z,12.70
2018-01-15T14:42:31.699Z,13.68
2018-01-15T14:44:59.182Z,12.52
2018-01-15T14:47:26.693Z,12.63
2018-01-15T14:49:54.176Z,12.10
2018-01-15T14:52:21.656Z,12.45
2018-01-15T14:54:49.436Z,13.15
2018-01-15T14:57:17.007Z,13.65
2018-01-15T14:59:44.520Z,13.27
2018-01-15T15:02:12.013Z,11.95
2018-01-15T15:04:39.535Z,13.45
2018-01-15T15:07:07.018Z,13.38
2018-01-15T15:09:34.510Z,12.15
2018-01-15T15:12:02.018Z,12.68
2018-01-15T15:14:29.559Z,13.07
2018-01-15T15:16:57.090Z,11.80
2018-01-15T15:19:24.555Z,13.00
2018-01-15T15:21:52.095Z,12.93
2018-01-15T15:24:19.587Z,12.77
2018-01-15T15:26:47.110Z,12.15
2018-01-15T15:29:14.936Z,12.25
2018-01-15T15:31:42.486Z,11.80
2018-01-15T15:34:09.970Z,11.50
2018-01-15T15:36:37.527Z,11.90
2018-01-15T15:39:05.073Z,12.25
2018-01-15T15:41:32.657Z,13.00
2018-01-15T15:44:00.285Z,14.65
2018-01-15T15:46:27.785Z,13.93
2018-01-15T15:48:55.506Z,12.90
2018-01-15T15:51:23.092Z,12.73
2018-01-15T15:53:50.615Z,13.52
2018-01-15T15:56:18.156Z,13.15
2018-01-15T15:58:45.710Z,12.60
2018-01-15T16:01:13.231Z,13.57
2018-01-15T16:03:40.743Z,11.80
2018-01-15T16:06:08.240Z,14.23
2018-01-15T16:08:36.356Z,13.50
2018-01-15T16:11:03.875Z,13.57
2018-01-15T16:13:31.367Z,13.55
2018-01-15T16:15:58.877Z,15.50
2018-01-15T16:18:26.548Z,14.45
2018-01-15T16:20:54.131Z,13.00
2018-01-15T16:23:21.591Z,14.45
2018-01-15T16:25:49.893Z,14.50
2018-01-15T16:28:17.747Z,15.57
2018-01-15T16:30:45.246Z,13.77
2018-01-15T16:33:12.721Z,15.38
2018-01-15T16:35:40.263Z,14.00
2018-01-15T16:38:07.783Z,15.43
2018-01-15T16:40:35.837Z,14.48
2018-01-15T16:43:03.467Z,15.57
2018-01-15T16:45:30.990Z,15.70
2018-01-15T16:47:58.493Z,13.80
2018-01-15T16:50:25.998Z,14.98
2018-01-15T16:52:53.557Z,14.70
2018-01-15T16:55:21.076Z,13.88
2018-01-15T16:57:48.562Z,14.63
2018-01-15T17:00:16.174Z,14.15
2018-01-15T17:02:44.629Z,14.13
2018-01-15T17:05:12.169Z,15.25
2018-01-15T17:07:39.668Z,15.02
2018-01-15T17:10:07.175Z,14.55
2018-01-15T17:12:34.654Z,15.32
2018-01-15T17:15:02.314Z,16.98
2018-01-15T17:17:29.800Z,15.60
2018-01-15T17:19:57.288Z,16.27
2018-01-15T17:22:24.751Z,14.27
2018-01-15T17:24:52.365Z,16.17
2018-01-15T17:27:20.274Z,14.87
2018-01-15T17:29:47.769Z,17.23
2018-01-15T17:32:15.385Z,15.20
2018-01-15T17:34:42.884Z,17.30
2018-01-15T17:37:10.424Z,16.80
2018-01-15T17:39:37.905Z,16.45
2018-01-15T17:42:05.420Z,15.20
2018-01-15T17:44:32.908Z,16.67
2018-01-15T17:47:00.400Z,18.90
2018-01-15T17:49:27.911Z,17.40
2018-01-15T17:51:55.520Z,17.05
2018-01-15T17:54:23.259Z,18.33
2018-01-15T17:56:50.758Z,26.05
2018-01-15T17:59:18.247Z,29.90
2018-01-15T18:01:45.739Z,19.00
2018-01-15T18:04:13.242Z,18.77
2018-01-15T18:06:40.748Z,19.17
2018-01-15T18:09:08.222Z,18.60
2018-01-15T18:11:35.727Z,18.27
2018-01-15T18:14:03.216Z,19.42
2018-01-15T18:16:30.762Z,20.00
2018-01-15T18:18:58.801Z,19.45
2018-01-15T18:21:26.286Z,20.30
2018-01-15T18:23:53.765Z,19.95
2018-01-15T18:26:21.324Z,19.37
2018-01-15T18:28:48.815Z,18.45
2018-01-15T18:31:16.321Z,20.17
2018-01-15T18:33:43.962Z,20.55
2018-01-15T18:36:11.459Z,20.02
2018-01-15T18:38:38.968Z,18.73
2018-01-15T18:41:06.451Z,21.50
2018-01-15T18:43:33.993Z,21.67
2018-01-15T18:46:01.488Z,20.40
2018-01-15T18:48:30.408Z,21.27
2018-01-15T18:50:57.897Z,18.73
2018-01-15T18:53:25.398Z,21.50
2018-01-15T18:55:52.881Z,22.35
2018-01-15T18:58:20.390Z,19.05
2018-01-15T19:00:48.280Z,20.65
2018-01-15T19:03:16.000Z,22.05
2018-01-15T19:05:43.497Z,22.50
2018-01-15T19:08:11.216Z,20.70
2018-01-15T19:10:38.991Z,20.92
2018-01-15T19:13:06.512Z,21.67
2018-01-15T19:15:34.005Z,24.55
2018-01-15T19:18:01.490Z,21.92
2018-01-15T19:20:28.979Z,21.10
2018-01-15T19:22:56.476Z,20.10
2018-01-15T19:25:23.975Z,22.65
2018-01-15T19:27:51.467Z,23.77
2018-01-15T19:30:18.992Z,20.50
2018-01-15T19:32:46.503Z,22.37
2018-01-15T19:35:13.999Z,20.90
2018-01-15T19:37:56.367Z,23.00
2018-01-15T19:40:23.848Z,21.98
2018-01-15T19:42:51.736Z,20.88
2018-01-15T19:45:24.898Z,21.90
2018-01-15T19:47:57.803Z,22.90
2018-01-15T19:50:30.831Z,24.98
2018-01-15T19:53:03.922Z,23.27
2018-01-15T19:55:36.958Z,23.85
2018-01-15T20:01:11.364Z,26.58
2018-01-15T20:03:44.508Z,25.33
2018-01-15T20:06:17.700Z,25.35
2018-01-15T20:08:50.593Z,25.48
2018-01-15T20:11:18.998Z,24.90
2018-01-15T20:13:46.472Z,22.27
2018-01-15T20:16:13.943Z,23.02
2018-01-15T20:18:41.414Z,25.00
2018-01-15T20:21:08.869Z,24.35
2018-01-15T20:23:36.338Z,24.23
2018-01-15T20:26:03.832Z,23.05
2018-01-15T20:28:31.274Z,22.52
2018-01-15T20:30:58.792Z,24.67
2018-01-15T20:33:26.293Z,23.85
2018-01-15T20:35:53.806Z,23.12
2018-01-15T20:38:21.292Z,25.60
2018-01-15T20:40:48.766Z,25.40
2018-01-15T20:43:16.220Z,24.87
2018-01-15T20:45:43.684Z,23.40
2018-01-15T20:48:11.139Z,26.62
2018-01-15T20:50:38.670Z,23.92
2018-01-15T20:53:06.129Z,25.15
2018-01-15T20:55:33.630Z,24.77
2018-01-15T20:58:01.109Z,25.85
2018-01-15T21:00:28.908Z,25.55
2018-01-15T21:02:56.407Z,22.98
2018-01-15T21:05:23.879Z,24.95
2018-01-15T21:07:51.368Z,22.95
2018-01-15T21:10:19.065Z,23.58
2018-01-15T21:12:46.556Z,23.15
2018-01-15T21:15:14.011Z,23.30
2018-01-15T21:17:41.453Z,24.12
2018-01-15T21:20:08.951Z,21.77
2018-01-15T21:22:36.661Z,24.60
2018-01-15T21:25:04.154Z,25.77
2018-01-15T21:27:31.651Z,24.45
2018-01-15T21:29:59.141Z,25.10
2018-01-15T21:32:26.591Z,23.85
2018-01-15T21:34:54.043Z,27.05
2018-01-15T21:37:21.538Z,25.48
2018-01-15T21:39:49.016Z,21.80
2018-01-15T21:42:16.493Z,23.27
2018-01-15T21:44:43.985Z,21.73
2018-01-15T21:47:11.458Z,22.50
2018-01-15T21:49:38.961Z,23.98
2018-01-15T21:52:06.440Z,22.10
2018-01-15T21:54:34.074Z,22.65
2018-01-15T21:57:01.569Z,23.87
2018-01-15T21:59:29.043Z,22.65
2018-01-15T22:01:56.516Z,23.35
2018-01-15T22:04:23.976Z,23.70
2018-01-15T22:06:51.535Z,21.55
2018-01-15T22:09:19.513Z,23.75
2018-01-15T22:11:47.067Z,23.83
2018-01-15T22:14:14.579Z,23.58
2018-01-15T22:16:42.018Z,24.58
2018-01-15T22:19:09.494Z,22.58
2018-01-15T22:21:37.016Z,22.40
2018-01-15T22:24:04.482Z,23.08
2018-01-15T22:26:31.975Z,23.92
2018-01-15T22:28:59.434Z,21.92
2018-01-15T22:31:26.909Z,23.08
2018-01-15T22:33:54.390Z,22.40
2018-01-15T22:36:21.926Z,22.08
2018-01-15T22:38:49.448Z,24.27
2018-01-15T22:41:16.906Z,25.45
2018-01-15T22:43:44.371Z,24.23
2018-01-15T22:46:11.935Z,24.55
2018-01-15T22:48:39.442Z,26.15
2018-01-15T22:51:06.931Z,26.15
2018-01-15T22:53:34.394Z,26.80
2018-01-15T22:56:01.898Z,25.65
2018-01-15T22:58:29.651Z,23.20
2018-01-15T23:00:57.131Z,24.83
2018-01-15T23:03:24.615Z,25.85
2018-01-15T23:05:52.083Z,25.40
2018-01-15T23:08:19.634Z,25.05
2018-01-15T23:10:47.127Z,23.38
2018-01-15T23:13:14.690Z,23.85
2018-01-15T23:15:42.148Z,24.60
2018-01-15T23:18:09.617Z,24.73
2018-01-15T23:20:37.678Z,24.05
2018-01-15T23:23:05.204Z,24.55
2018-01-15T23:25:32.690Z,22.90
2018-01-15T23:28:00.137Z,24.10
2018-01-15T23:30:27.871Z,24.42
2018-01-15T23:32:55.387Z,21.98
2018-01-15T23:35:22.836Z,22.65
2018-01-15T23:37:50.289Z,24.37
2018-01-15T23:40:17.771Z,22.75
2018-01-15T23:42:45.236Z,24.60
2018-01-15T23:45:12.739Z,24.30
2018-01-15T23:47:40.216Z,24.23
2018-01-15T23:50:07.670Z,26.27
2018-01-15T23:52:35.441Z,24.50
2018-01-15T23:55:02.906Z,22.98
2018-01-15T23:57:30.367Z,25.48
2018-01-15T23:59:57.837Z,25.62
